Time;durP1;ratioP1;P1;durP2;ratioP2;P2;SDS_P1;SDS_P2;PMS_P1;PMS_P2;Temp;Humidity;BMP_temperature;BMP_pressure;BME280_temperature;BME280_humidity;BME280_pressure;Samples;Min_cycle;Max_cycle;Signal;HPM_P1;HPM_P2
2023/09/20 00:02:15;;;;;;;16.47;10.10;;;12.00;99.90;;;;;;4410015;28;660989;-67
2023/09/20 00:05:05;;;;;;;14.73;9.83;;;12.00;99.90;;;;;;4392871;28;659578;-68
2023/09/20 00:07:54;;;;;;;15.30;9.93;;;12.00;99.90;;;;;;4400888;28;658511;-69
2023/09/20 00:10:42;;;;;;;21.07;10.70;;;12.00;99.90;;;;;;4410898;28;660159;-68
2023/09/20 00:13:29;;;;;;;18.10;11.37;;;12.00;99.90;;;;;;4382182;28;660103;-69
2023/09/20 00:16:17;;;;;;;19.93;11.20;;;12.00;99.90;;;;;;4409604;28;659924;-67
2023/09/20 00:19:04;;;;;;;19.13;11.67;;;12.00;99.90;;;;;;4400474;28;660188;-69
2023/09/20 00:21:53;;;;;;;18.43;11.50;;;12.10;99.90;;;;;;4417690;28;660827;-67
2023/09/20 00:24:40;;;;;;;19.43;11.07;;;12.20;99.90;;;;;;4388368;28;660505;-67
2023/09/20 00:27:27;;;;;;;18.30;10.27;;;12.20;99.90;;;;;;4397541;28;660002;-68
2023/09/20 00:30:17;;;;;;;21.73;11.33;;;12.20;99.90;;;;;;4413771;28;660080;-68
2023/09/20 00:33:05;;;;;;;21.83;11.60;;;12.20;99.90;;;;;;4400682;28;660364;-67
2023/09/20 00:35:52;;;;;;;23.80;10.90;;;12.20;99.90;;;;;;4411236;28;659231;-68
2023/09/20 00:38:41;;;;;;;19.10;12.53;;;12.20;99.90;;;;;;4413771;28;660456;-67
2023/09/20 00:41:28;;;;;;;18.43;12.27;;;12.30;99.90;;;;;;4384068;28;659462;-68
2023/09/20 00:44:16;;;;;;;17.77;10.97;;;12.30;99.90;;;;;;4412089;28;660698;-68
2023/09/20 00:47:04;;;;;;;19.80;13.00;;;12.30;99.90;;;;;;4395183;28;660187;-67
2023/09/20 00:49:51;;;;;;;24.77;11.40;;;12.30;99.90;;;;;;4407770;28;661102;-67
2023/09/20 00:52:41;;;;;;;16.90;11.43;;;12.40;99.90;;;;;;4397101;28;660741;-67
2023/09/20 00:55:31;;;;;;;24.43;11.97;;;12.40;99.90;;;;;;4391703;28;659494;-67
2023/09/20 00:58:20;;;;;;;18.93;12.03;;;12.40;99.90;;;;;;4394423;28;660551;-67
2023/09/20 01:01:09;;;;;;;21.20;11.90;;;12.50;99.90;;;;;;4417383;28;659605;-68
2023/09/20 01:03:56;;;;;;;20.60;14.07;;;12.50;99.90;;;;;;4413746;28;659724;-67
2023/09/20 01:06:46;;;;;;;24.40;13.30;;;12.50;99.90;;;;;;4385920;28;660339;-68
2023/09/20 01:09:33;;;;;;;19.80;11.83;;;12.50;99.90;;;;;;4387044;28;659505;-68
2023/09/20 01:12:22;;;;;;;23.23;14.00;;;12.50;99.90;;;;;;4409361;28;660816;-67
2023/09/20 01:15:10;;;;;;;24.30;14.20;;;12.50;99.90;;;;;;4388146;28;659589;-67
2023/09/20 01:17:58;;;;;;;21.87;13.93;;;12.60;99.90;;;;;;4390798;28;660303;-68
2023/09/20 01:20:46;;;;;;;21.33;12.93;;;12.60;99.90;;;;;;4409699;28;660013;-68
2023/09/20 01:23:34;;;;;;;22.30;12.37;;;12.70;99.90;;;;;;4381541;28;659597;-68
2023/09/20 01:26:22;;;;;;;19.33;13.95;;;12.70;99.90;;;;;;4403855;28;660691;-67
2023/09/20 01:29:09;;;;;;;23.07;15.27;;;12.70;99.90;;;;;;4389737;28;660436;-67
2023/09/20 01:32:01;;;;;;;22.80;12.27;;;12.70;99.90;;;;;;4408431;28;660121;-67
2023/09/20 01:34:49;;;;;;;24.37;14.23;;;12.70;99.90;;;;;;4385080;28;659475;-67
2023/09/20 01:37:36;;;;;;;27.27;14.10;;;12.80;99.90;;;;;;4405737;28;659708;-67
2023/09/20 01:40:26;;;;;;;17.97;14.33;;;12.80;99.90;;;;;;4385297;28;660218;-67
2023/09/20 01:43:13;;;;;;;23.97;15.00;;;12.80;99.90;;;;;;4388006;28;660747;-68
2023/09/20 01:46:02;;;;;;;29.27;16.03;;;12.80;99.90;;;;;;4411272;28;660605;-67
2023/09/20 01:48:50;;;;;;;25.53;15.33;;;12.80;99.90;;;;;;4384614;28;660196;-67
2023/09/20 01:51:37;;;;;;;23.50;15.70;;;12.90;99.90;;;;;;4400622;28;659575;-68
2023/09/20 01:54:28;;;;;;;19.93;13.87;;;12.90;99.90;;;;;;4410659;28;659815;-67
2023/09/20 01:57:17;;;;;;;18.60;13.23;;;12.90;99.90;;;;;;4383447;28;660457;-67
2023/09/20 02:00:16;;;;;;;26.67;15.37;;;12.90;99.90;;;;;;4384669;28;660496;-67
2023/09/20 02:03:08;;;;;;;26.92;15.45;;;12.90;99.90;;;;;;4361450;28;661707;-68
2023/09/20 02:05:55;;;;;;;31.07;15.60;;;12.80;99.90;;;;;;4382829;28;660164;-67
2023/09/20 02:08:42;;;;;;;22.03;13.50;;;12.80;99.90;;;;;;4390308;28;660164;-68
2023/09/20 02:11:30;;;;;;;26.27;13.00;;;12.80;99.90;;;;;;4413969;28;660003;-69
2023/09/20 02:14:19;;;;;;;19.90;12.63;;;12.80;99.90;;;;;;4401822;28;660363;-68
2023/09/20 02:17:07;;;;;;;22.70;13.03;;;12.80;99.90;;;;;;4406492;28;660567;-67
2023/09/20 02:19:54;;;;;;;20.47;11.80;;;12.70;99.90;;;;;;4386723;28;660033;-67
2023/09/20 02:22:42;;;;;;;28.47;11.20;;;12.70;99.90;;;;;;4405717;28;659114;-67
2023/09/20 02:25:29;;;;;;;16.40;10.13;;;12.60;99.90;;;;;;4389594;28;660083;-67
2023/09/20 02:28:16;;;;;;;14.83;9.77;;;12.60;99.90;;;;;;4406955;28;659849;-67
2023/09/20 02:31:05;;;;;;;14.50;9.63;;;12.50;99.90;;;;;;4388531;28;658395;-68
2023/09/20 02:33:53;;;;;;;720.00;27.93;;;12.50;99.90;;;;;;4393809;28;660203;-68
2023/09/20 02:36:41;;;;;;;20.63;9.57;;;12.50;99.90;;;;;;4413955;28;660764;-67
2023/09/20 02:39:28;;;;;;;14.30;8.03;;;12.40;99.90;;;;;;4382439;28;659039;-68
2023/09/20 02:42:15;;;;;;;21.07;8.60;;;12.40;99.90;;;;;;4405340;28;658954;-67
2023/09/20 02:45:03;;;;;;;13.47;8.37;;;12.30;99.90;;;;;;4388715;28;658725;-68
2023/09/20 02:47:52;;;;;;;13.80;7.90;;;12.30;99.90;;;;;;4411143;28;659982;-67
2023/09/20 02:50:41;;;;;;;18.57;8.80;;;12.30;99.90;;;;;;4387569;28;659121;-67
2023/09/20 02:53:28;;;;;;;16.30;8.03;;;12.30;99.90;;;;;;4390732;28;658371;-67
2023/09/20 02:56:17;;;;;;;12.50;7.73;;;12.20;99.90;;;;;;4412037;28;659686;-67
2023/09/20 02:59:07;;;;;;;16.70;8.20;;;12.20;99.90;;;;;;4386795;28;659375;-67
2023/09/20 03:01:54;;;;;;;15.07;7.53;;;12.20;99.90;;;;;;4392230;28;659274;-67
2023/09/20 03:04:43;;;;;;;19.07;7.67;;;12.10;99.90;;;;;;4412040;28;658844;-67
2023/09/20 03:07:30;;;;;;;11.93;7.90;;;12.00;99.90;;;;;;4388849;28;659594;-67
2023/09/20 03:10:21;;;;;;;14.43;8.03;;;12.00;99.90;;;;;;4387156;28;659420;-68
2023/09/20 03:13:10;;;;;;;15.50;7.60;;;12.00;99.90;;;;;;4391707;28;658653;-67
2023/09/20 03:15:58;;;;;;;11.13;7.50;;;12.00;99.90;;;;;;4394909;28;658608;-68
2023/09/20 03:18:45;;;;;;;10.87;7.30;;;11.90;99.90;;;;;;4408914;28;659569;-67
2023/09/20 03:21:34;;;;;;;13.20;6.77;;;11.80;99.90;;;;;;4389506;28;658572;-68
2023/09/20 03:24:21;;;;;;;29.73;7.10;;;11.80;99.90;;;;;;4404947;28;659488;-67
2023/09/20 03:27:08;;;;;;;12.57;6.80;;;11.80;99.90;;;;;;4394934;28;658848;-67
2023/09/20 03:29:56;;;;;;;13.37;6.73;;;11.80;99.90;;;;;;4412683;28;659188;-67
2023/09/20 03:32:44;;;;;;;21.43;6.80;;;11.70;99.90;;;;;;4381284;28;659951;-67
2023/09/20 03:35:32;;;;;;;12.07;6.50;;;11.70;99.90;;;;;;4403814;28;658989;-67
2023/09/20 03:38:21;;;;;;;12.00;6.10;;;11.70;99.90;;;;;;4383360;28;659987;-67
2023/09/20 03:41:09;;;;;;;17.10;6.80;;;11.60;99.90;;;;;;4385573;28;658776;-67
2023/09/20 03:43:56;;;;;;;17.60;7.10;;;11.60;99.90;;;;;;4407648;28;658949;-67
2023/09/20 03:46:43;;;;;;;16.23;6.73;;;11.50;99.90;;;;;;4388624;28;658802;-68
2023/09/20 03:49:30;;;;;;;17.10;7.03;;;11.50;99.90;;;;;;4402101;28;659591;-67
2023/09/20 03:52:18;;;;;;;12.05;7.50;;;11.50;99.90;;;;;;4389387;28;658889;-69
2023/09/20 03:55:07;;;;;;;11.17;6.70;;;11.50;99.90;;;;;;4414750;28;659374;-67
2023/09/20 03:57:56;;;;;;;14.97;6.47;;;11.40;99.90;;;;;;4381485;28;659710;-67
2023/09/20 04:00:44;;;;;;;12.67;6.60;;;11.30;99.90;;;;;;4383761;28;658875;-67
2023/09/20 04:03:34;;;;;;;17.27;6.87;;;11.30;99.90;;;;;;4407605;28;659570;-67
2023/09/20 04:06:23;;;;;;;14.17;7.43;;;11.30;99.90;;;;;;4389279;28;659747;-67
2023/09/20 04:09:10;;;;;;;14.13;7.10;;;11.30;99.90;;;;;;4388102;28;659021;-67
2023/09/20 04:11:59;;;;;;;18.83;7.20;;;11.30;99.90;;;;;;4388051;28;659950;-67
2023/09/20 04:14:47;;;;;;;14.30;7.33;;;11.20;99.90;;;;;;4411617;28;658856;-66
2023/09/20 04:17:35;;;;;;;18.43;6.60;;;11.20;99.90;;;;;;4388580;28;659140;-67
2023/09/20 04:20:22;;;;;;;14.07;7.13;;;11.20;99.90;;;;;;4410048;28;657783;-68
2023/09/20 04:23:10;;;;;;;9.40;6.93;;;11.10;99.90;;;;;;4395209;28;658978;-67
2023/09/20 04:25:58;;;;;;;11.87;6.90;;;11.10;99.90;;;;;;4393908;28;659337;-68
2023/09/20 04:28:48;;;;;;;13.70;6.60;;;11.10;99.90;;;;;;4410348;28;659151;-67
2023/09/20 04:31:35;;;;;;;11.97;6.87;;;11.10;99.90;;;;;;4384729;28;658763;-67
2023/09/20 04:34:23;;;;;;;12.77;6.87;;;11.00;99.90;;;;;;4388033;28;659037;-68
2023/09/20 04:37:12;;;;;;;12.93;6.83;;;11.00;99.90;;;;;;4413444;28;659844;-67
2023/09/20 04:40:00;;;;;;;17.50;7.10;;;11.10;99.90;;;;;;4391674;28;659405;-67
2023/09/20 04:42:47;;;;;;;10.17;7.43;;;11.10;99.90;;;;;;4405118;28;658961;-66
2023/09/20 04:45:35;;;;;;;10.67;7.00;;;11.10;99.90;;;;;;4388122;28;659330;-67
2023/09/20 04:48:23;;;;;;;31.93;6.97;;;11.10;99.90;;;;;;4386521;28;658713;-67
2023/09/20 04:51:11;;;;;;;22.33;6.37;;;11.20;99.90;;;;;;4407931;28;659550;-67
2023/09/20 04:53:58;;;;;;;17.27;6.60;;;11.10;99.90;;;;;;4387282;28;660365;-67
2023/09/20 04:56:47;;;;;;;16.00;7.00;;;11.20;99.90;;;;;;4410681;28;658142;-66
2023/09/20 04:59:36;;;;;;;19.23;6.63;;;11.20;99.90;;;;;;4383987;28;659240;-67
2023/09/20 05:02:24;;;;;;;46.80;6.07;;;11.20;99.90;;;;;;4388359;28;658550;-67
2023/09/20 05:05:12;;;;;;;29.37;6.53;;;11.30;99.90;;;;;;4407259;28;658521;-67
2023/09/20 05:07:59;;;;;;;21.80;5.90;;;11.30;99.90;;;;;;4391125;28;658953;-67
2023/09/20 05:10:46;;;;;;;10.80;6.03;;;11.30;99.90;;;;;;4408927;28;659247;-68
2023/09/20 05:13:34;;;;;;;10.23;6.37;;;11.40;99.90;;;;;;4386875;28;658725;-67
2023/09/20 05:16:21;;;;;;;10.03;6.33;;;11.40;99.90;;;;;;4406179;28;659288;-67
2023/09/20 05:19:10;;;;;;;9.77;6.67;;;11.50;99.90;;;;;;4387640;28;659410;-67
2023/09/20 05:22:00;;;;;;;10.70;7.33;;;11.60;99.90;;;;;;4405853;28;660783;-68
2023/09/20 05:24:48;;;;;;;12.73;8.20;;;11.70;99.90;;;;;;4389345;28;658863;-67
2023/09/20 05:27:35;;;;;;;16.67;8.23;;;11.80;99.90;;;;;;4406481;28;659703;-69
2023/09/20 05:30:24;;;;;;;16.90;9.33;;;12.00;99.90;;;;;;4401404;28;658477;-68
2023/09/20 05:33:11;;;;;;;15.50;10.13;;;12.10;99.90;;;;;;4406177;28;658138;-68
2023/09/20 05:36:00;;;;;;;21.73;10.10;;;12.30;99.90;;;;;;4386537;28;659810;-68
2023/09/20 05:38:48;;;;;;;17.57;9.90;;;12.50;99.90;;;;;;4384200;28;660109;-69
2023/09/20 05:41:36;;;;;;;17.67;10.50;;;12.60;99.90;;;;;;4410030;28;659694;-69
2023/09/20 05:44:23;;;;;;;20.33;10.70;;;12.70;99.90;;;;;;4392448;28;659859;-68
2023/09/20 05:47:10;;;;;;;17.53;9.97;;;12.90;99.90;;;;;;4409417;28;659675;-68
2023/09/20 05:49:59;;;;;;;20.07;10.13;;;13.00;99.90;;;;;;4388974;28;659416;-70
2023/09/20 05:52:48;;;;;;;14.90;9.90;;;13.10;99.90;;;;;;4405960;28;660373;-68
2023/09/20 05:55:37;;;;;;;17.33;10.63;;;13.20;99.90;;;;;;4385649;28;659334;-69
2023/09/20 05:58:25;;;;;;;16.40;9.70;;;13.30;99.90;;;;;;4396921;28;660620;-68
2023/09/20 06:01:13;;;;;;;17.67;9.60;;;13.40;99.90;;;;;;4389265;28;658529;-68
2023/09/20 06:04:01;;;;;;;13.17;8.70;;;13.40;99.90;;;;;;4408328;28;659286;-68
2023/09/20 06:06:49;;;;;;;13.07;8.27;;;13.50;99.90;;;;;;4393496;28;658945;-68
2023/09/20 06:09:38;;;;;;;17.60;9.00;;;13.60;99.90;;;;;;4404064;28;658290;-67
2023/09/20 06:12:25;;;;;;;12.50;8.67;;;13.70;99.90;;;;;;4387611;28;659516;-68
2023/09/20 06:15:13;;;;;;;15.10;8.13;;;13.90;99.90;;;;;;4404761;28;659620;-68
2023/09/20 06:18:01;;;;;;;16.27;8.27;;;14.00;99.90;;;;;;4419067;28;658976;-68
2023/09/20 06:20:51;;;;;;;16.37;8.60;;;14.00;99.90;;;;;;4393084;28;658872;-69
2023/09/20 06:23:39;;;;;;;18.03;8.90;;;14.10;99.90;;;;;;4393674;28;659028;-68
2023/09/20 06:26:28;;;;;;;13.00;7.77;;;14.20;99.90;;;;;;4409967;28;659048;-68
2023/09/20 06:29:15;;;;;;;16.38;8.25;;;14.30;99.90;;;;;;4385194;28;659210;-68
2023/09/20 06:32:04;;;;;;;12.60;8.27;;;14.40;99.90;;;;;;4395827;28;659850;-68
2023/09/20 06:34:52;;;;;;;17.90;8.33;;;14.50;99.90;;;;;;4409932;28;658983;-68
2023/09/20 06:37:39;;;;;;;13.50;7.37;;;14.60;99.90;;;;;;4383498;28;658897;-68
2023/09/20 06:40:34;;;;;;;12.67;6.90;;;14.70;99.90;;;;;;4412964;28;659933;-67
2023/09/20 06:43:22;;;;;;;12.57;6.60;;;14.80;99.90;;;;;;4385807;28;658539;-68
2023/09/20 06:46:10;;;;;;;12.43;6.70;;;14.80;99.90;;;;;;4392596;28;660152;-68
2023/09/20 06:48:57;;;;;;;12.40;5.90;;;14.90;99.90;;;;;;4407428;28;658870;-68
2023/09/20 06:51:44;;;;;;;11.40;5.20;;;15.10;99.90;;;;;;4390483;28;659207;-68
2023/09/20 06:54:32;;;;;;;10.67;4.37;;;15.20;99.90;;;;;;4408829;28;658793;-68
2023/09/20 06:57:21;;;;;;;11.47;4.60;;;15.30;99.90;;;;;;4391919;28;660337;-69
2023/09/20 07:00:21;;;;;;;9.10;4.60;;;15.30;99.90;;;;;;4395649;28;659796;-68
2023/09/20 07:03:09;;;;;;;10.20;4.70;;;15.40;99.90;;;;;;4367599;28;658771;-69
2023/09/20 07:05:56;;;;;;;7.10;4.47;;;15.50;99.90;;;;;;4408963;28;658581;-68
2023/09/20 07:08:43;;;;;;;6.00;3.60;;;15.60;99.90;;;;;;4391157;28;658625;-67
2023/09/20 07:11:33;;;;;;;6.33;4.10;;;15.70;99.90;;;;;;4394433;28;657438;-68
2023/09/20 07:14:21;;;;;;;6.32;3.70;;;15.70;99.90;;;;;;4411496;28;658260;-68
2023/09/20 07:17:10;;;;;;;9.43;4.33;;;15.90;99.90;;;;;;4388166;28;657517;-68
2023/09/20 07:19:57;;;;;;;6.53;4.20;;;16.10;99.90;;;;;;4411785;28;657435;-69
2023/09/20 07:22:45;;;;;;;8.57;3.80;;;16.40;99.90;;;;;;4418037;28;659290;-69
2023/09/20 07:25:35;;;;;;;8.43;5.00;;;16.40;99.90;;;;;;4412624;28;658129;-69
2023/09/20 07:28:24;;;;;;;6.87;4.43;;;16.60;99.90;;;;;;4380758;28;657721;-69
2023/09/20 07:31:11;;;;;;;8.80;5.07;;;16.80;99.90;;;;;;4421054;28;657512;-69
2023/09/20 07:34:02;;;;;;;8.60;4.50;;;16.90;99.90;;;;;;4402337;28;658016;-69
2023/09/20 07:36:53;;;;;;;7.63;3.90;;;17.00;99.90;;;;;;4391809;28;658733;-68
2023/09/20 07:39:40;;;;;;;7.53;4.00;;;17.10;99.90;;;;;;4407186;28;657876;-68
2023/09/20 07:42:28;;;;;;;7.60;3.80;;;17.10;99.90;;;;;;4405482;28;657489;-69
2023/09/20 07:45:15;;;;;;;11.03;4.10;;;17.20;99.90;;;;;;4424528;28;658432;-69
2023/09/20 07:48:03;;;;;;;9.60;3.53;;;17.50;99.90;;;;;;4402402;28;658666;-69
2023/09/20 07:50:52;;;;;;;9.30;3.57;;;17.60;99.90;;;;;;4421379;28;658888;-69
2023/09/20 07:53:39;;;;;;;8.20;3.67;;;17.80;99.90;;;;;;4399121;28;658596;-69
2023/09/20 07:56:28;;;;;;;9.48;3.55;;;17.80;99.90;;;;;;4418399;28;657460;-69
2023/09/20 07:59:16;;;;;;;5.80;3.40;;;18.00;99.90;;;;;;4394634;28;658072;-68
2023/09/20 08:02:04;;;;;;;6.27;3.00;;;18.20;99.90;;;;;;4400984;28;657553;-69
2023/09/20 08:04:51;;;;;;;6.07;2.57;;;18.40;99.90;;;;;;4411770;28;657961;-69
2023/09/20 08:07:40;;;;;;;7.43;2.70;;;18.50;99.90;;;;;;4398255;28;657506;-68
2023/09/20 08:10:27;;;;;;;5.87;2.80;;;18.60;99.90;;;;;;4397439;28;657668;-69
2023/09/20 08:13:16;;;;;;;5.07;2.40;;;18.40;99.90;;;;;;4412851;28;658817;-68
2023/09/20 08:16:08;;;;;;;5.27;2.03;;;18.50;99.90;;;;;;4396151;28;657612;-68
2023/09/20 08:19:09;;;;;;;4.07;2.23;;;18.60;99.90;;;;;;4413392;28;658069;-67
2023/09/20 08:21:56;;;;;;;8.90;2.10;;;18.70;99.90;;;;;;4390230;28;657632;-67
2023/09/20 09:01:47;;;;;;;6.63;2.20;;;19.90;99.90;;;;;;4388574;28;658375;-68
2023/09/20 09:04:34;;;;;;;5.43;2.10;;;20.00;99.90;;;;;;4386118;28;658084;-69
2023/09/20 09:07:22;;;;;;;7.37;2.03;;;20.30;99.90;;;;;;4405959;28;657757;-68
2023/09/20 09:10:13;;;;;;;7.83;2.30;;;20.50;99.90;;;;;;4389386;28;658595;-68
2023/09/20 09:13:03;;;;;;;5.87;2.17;;;20.50;99.90;;;;;;4381590;28;658519;-69
2023/09/20 09:15:50;;;;;;;6.87;1.80;;;20.40;99.90;;;;;;4381558;28;658091;-68
2023/09/20 09:18:39;;;;;;;5.30;1.57;;;20.20;99.90;;;;;;4389588;28;657709;-68
2023/09/20 09:21:27;;;;;;;5.23;1.90;;;19.90;99.90;;;;;;4403726;28;657892;-68
2023/09/20 09:24:14;;;;;;;2.73;1.63;;;20.40;99.90;;;;;;4383730;28;659215;-67
2023/09/20 09:27:05;;;;;;;5.53;1.70;;;20.40;99.90;;;;;;4406465;28;657429;-68
2023/09/20 09:29:54;;;;;;;3.63;1.90;;;20.30;99.90;;;;;;4378506;28;657479;-68
2023/09/20 09:32:43;;;;;;;2.97;1.30;;;20.40;99.90;;;;;;4407911;28;658437;-67
2023/09/20 09:35:31;;;;;;;2.97;1.60;;;20.20;99.90;;;;;;4379819;28;658172;-69
2023/09/20 09:38:21;;;;;;;4.60;1.57;;;20.20;99.90;;;;;;4384252;28;657954;-69
2023/09/20 09:41:10;;;;;;;5.07;1.77;;;20.60;99.90;;;;;;4391866;28;657745;-69
2023/09/20 09:43:58;;;;;;;4.30;1.63;;;20.90;99.90;;;;;;4396180;28;657379;-69
2023/09/20 09:46:47;;;;;;;5.50;1.73;;;21.10;99.90;;;;;;4407250;28;658710;-68
2023/09/20 09:49:34;;;;;;;3.77;1.37;;;21.30;99.90;;;;;;4391946;28;657670;-67
2023/09/20 09:52:23;;;;;;;4.00;1.60;;;20.70;99.90;;;;;;4404381;28;657955;-67
2023/09/20 09:55:10;;;;;;;1.63;1.10;;;21.00;99.90;;;;;;4395091;28;657909;-68
2023/09/20 09:57:58;;;;;;;4.27;1.70;;;21.00;99.90;;;;;;4390457;28;657536;-68
2023/09/20 10:00:48;;;;;;;3.77;1.50;;;21.10;99.90;;;;;;4420027;28;658289;-68
2023/09/20 10:03:40;;;;;;;3.33;1.40;;;21.40;99.90;;;;;;4399093;28;658256;-67
2023/09/20 10:06:29;;;;;;;3.53;1.30;;;21.20;99.90;;;;;;4373905;28;657349;-67
2023/09/20 10:09:20;;;;;;;2.93;1.50;;;21.30;99.90;;;;;;4405379;28;657528;-68
2023/09/20 10:12:08;;;;;;;5.60;1.77;;;21.20;99.90;;;;;;4392643;28;657696;-68
2023/09/20 10:14:57;;;;;;;7.93;1.73;;;21.40;99.90;;;;;;4415296;28;658600;-68
2023/09/20 10:17:45;;;;;;;6.00;1.53;;;21.40;99.90;;;;;;4389778;28;660322;-68
2023/09/20 10:20:59;;;;;;;5.43;1.60;;;21.50;99.90;;;;;;4410054;28;658642;-68
2023/09/20 10:23:48;;;;;;;5.00;1.60;;;21.60;99.90;;;;;;4397394;28;658309;-68
2023/09/20 10:26:35;;;;;;;4.23;1.50;;;21.20;99.90;;;;;;4398008;28;657644;-68
2023/09/20 10:29:24;;;;;;;4.27;1.60;;;21.40;99.90;;;;;;4401415;28;657712;-66
2023/09/20 10:32:14;;;;;;;3.00;1.80;;;21.50;99.90;;;;;;4411362;28;657418;-66
2023/09/20 10:35:19;;;;;;;4.90;1.80;;;21.50;99.90;;;;;;4384892;28;657873;-67
2023/09/20 10:38:25;;;;;;;7.20;1.60;;;21.60;99.90;;;;;;4397004;28;657773;-67
2023/09/20 10:41:13;;;;;;;3.37;1.73;;;21.90;99.90;;;;;;4372849;28;657482;-68
2023/09/20 10:44:00;;;;;;;4.00;1.57;;;21.90;99.90;;;;;;4407461;28;658877;-67
2023/09/20 10:46:48;;;;;;;6.87;1.60;;;22.10;99.90;;;;;;4407879;28;657739;-67
2023/09/20 10:49:43;;;;;;;3.93;1.40;;;22.00;99.90;;;;;;4423587;28;659051;-67
2023/09/20 10:52:56;;;;;;;4.47;1.60;;;22.30;99.90;;;;;;4375641;28;659434;-67
2023/09/20 10:55:45;;;;;;;3.58;1.42;;;22.60;99.90;;;;;;4372464;28;658223;-68
2023/09/20 10:58:32;;;;;;;3.58;1.58;;;22.70;99.90;;;;;;4411065;28;657781;-67
2023/09/20 11:01:21;;;;;;;3.55;1.70;;;23.10;99.90;;;;;;4415139;28;659415;-67
2023/09/20 11:04:08;;;;;;;2.37;1.50;;;22.70;99.90;;;;;;4396174;28;658070;-67
2023/09/20 11:06:58;;;;;;;2.50;1.50;;;22.40;99.90;;;;;;4409988;28;658833;-67
2023/09/20 11:09:46;;;;;;;4.17;1.50;;;22.60;96.60;;;;;;4396766;28;658740;-68
2023/09/20 11:12:34;;;;;;;5.17;1.73;;;22.70;99.90;;;;;;4400446;28;658507;-68
2023/09/20 11:15:22;;;;;;;2.17;1.40;;;23.00;89.50;;;;;;4418859;28;657230;-68
2023/09/20 11:18:09;;;;;;;3.03;1.30;;;22.60;95.70;;;;;;4388259;28;658591;-67
2023/09/20 11:20:58;;;;;;;2.73;1.50;;;22.40;99.90;;;;;;4411406;28;658104;-67
2023/09/20 11:23:46;;;;;;;3.77;1.43;;;22.40;99.90;;;;;;4391950;28;658763;-67
2023/09/20 11:26:33;;;;;;;2.22;1.42;;;22.50;99.90;;;;;;4400708;28;657414;-66
2023/09/20 11:29:22;;;;;;;3.23;1.30;;;22.70;91.00;;;;;;4421765;28;658602;-67
2023/09/20 11:32:10;;;;;;;9.27;1.50;;;22.50;99.30;;;;;;4396137;28;659309;-66
2023/09/20 11:34:58;;;;;;;5.30;1.40;;;22.80;99.90;;;;;;4385399;28;657483;-67
2023/09/20 11:37:45;;;;;;;4.05;1.70;;;22.70;99.90;;;;;;4422148;28;659825;-67
2023/09/20 11:40:32;;;;;;;3.43;1.73;;;22.80;99.90;;;;;;4402792;28;658812;-66
2023/09/20 11:43:20;;;;;;;4.67;1.67;;;22.30;99.90;;;;;;4419088;28;658333;-66
2023/09/20 11:46:11;;;;;;;2.65;1.30;;;22.20;99.90;;;;;;4392484;28;658065;-66
2023/09/20 11:48:59;;;;;;;3.25;1.80;;;23.20;99.90;;;;;;4392263;28;658016;-68
2023/09/20 11:51:47;;;;;;;3.25;1.25;;;23.70;99.90;;;;;;4409598;28;657408;-66
2023/09/20 11:54:37;;;;;;;2.45;1.20;;;23.80;92.40;;;;;;4390285;28;658656;-66
2023/09/20 11:57:25;;;;;;;6.07;1.40;;;23.80;82.60;;;;;;4388037;28;660191;-66
2023/09/20 12:00:16;;;;;;;2.45;1.35;;;23.60;89.90;;;;;;4391380;28;657618;-67
2023/09/20 12:03:05;;;;;;;3.17;1.50;;;24.00;88.10;;;;;;4393343;28;657466;-66
2023/09/20 12:05:53;;;;;;;6.47;1.15;;;23.70;88.00;;;;;;4385248;28;657416;-66
2023/09/20 12:08:41;;;;;;;2.60;1.20;;;24.30;85.00;;;;;;4406760;28;659726;-65
2023/09/20 12:11:29;;;;;;;4.22;1.30;;;24.20;74.00;;;;;;4387875;28;657608;-66
2023/09/20 12:14:16;;;;;;;3.17;1.40;;;23.40;76.90;;;;;;4421346;28;658203;-66
2023/09/20 12:17:04;;;;;;;2.38;1.23;;;22.50;99.30;;;;;;4395189;28;658049;-66
2023/09/20 12:19:52;;;;;;;3.80;1.38;;;23.00;99.90;;;;;;4404570;28;658220;-66
2023/09/20 12:22:40;;;;;;;4.38;1.40;;;23.10;96.10;;;;;;4397949;28;658233;-66
2023/09/20 12:25:27;;;;;;;2.17;1.27;;;22.80;94.50;;;;;;4408731;28;657765;-65
2023/09/20 12:28:14;;;;;;;2.75;1.48;;;22.80;99.90;;;;;;4397235;28;658476;-66
2023/09/20 12:31:03;;;;;;;1.95;1.10;;;23.40;93.70;;;;;;4417832;28;657911;-66
2023/09/20 12:33:50;;;;;;;2.38;1.35;;;23.50;90.40;;;;;;4392660;28;658241;-66
2023/09/20 12:36:39;;;;;;;1.33;1.17;;;23.80;99.90;;;;;;4384836;28;657696;-66
2023/09/20 12:39:27;;;;;;;1.65;1.30;;;24.00;87.20;;;;;;4407548;28;657333;-66
2023/09/20 12:42:14;;;;;;;3.25;1.17;;;24.40;86.20;;;;;;4385091;28;658546;-66
2023/09/20 12:45:04;;;;;;;3.85;1.42;;;24.60;75.30;;;;;;4408133;28;657562;-66
2023/09/20 12:47:52;;;;;;;4.13;1.40;;;24.10;70.70;;;;;;4391331;28;658164;-66
2023/09/20 12:50:41;;;;;;;2.90;1.25;;;24.20;86.50;;;;;;4391529;28;658044;-66
2023/09/20 12:53:31;;;;;;;2.80;1.25;;;24.50;84.30;;;;;;4387906;28;657701;-66
2023/09/20 12:56:18;;;;;;;3.67;1.33;;;24.30;74.30;;;;;;4387070;28;657573;-66
2023/09/20 12:59:05;;;;;;;5.18;1.50;;;24.30;75.20;;;;;;4404034;28;658033;-66
2023/09/20 13:01:54;;;;;;;3.00;1.25;;;24.20;87.90;;;;;;4386229;28;658002;-67
2023/09/20 13:04:42;;;;;;;3.05;1.17;;;24.40;75.30;;;;;;4405087;28;659691;-66
2023/09/20 13:07:30;;;;;;;2.15;1.10;;;24.30;75.00;;;;;;4390309;28;657984;-66
2023/09/20 13:10:19;;;;;;;1.90;1.10;;;24.10;70.90;;;;;;4409505;28;657895;-66
2023/09/20 13:13:08;;;;;;;5.43;1.48;;;24.10;84.90;;;;;;4391397;28;657617;-66
2023/09/20 13:15:55;;;;;;;6.82;1.35;;;24.10;81.80;;;;;;4383497;28;658133;-67
2023/09/20 13:18:43;;;;;;;2.10;1.17;;;24.40;68.70;;;;;;4391018;28;657622;-66
2023/09/20 13:21:31;;;;;;;2.42;1.30;;;23.70;74.70;;;;;;4406076;28;658511;-66
2023/09/20 13:24:18;;;;;;;2.38;1.30;;;24.10;83.50;;;;;;4386412;28;657791;-67
2023/09/20 13:27:06;;;;;;;3.55;1.30;;;24.30;73.40;;;;;;4409834;28;658164;-66
2023/09/20 13:29:55;;;;;;;3.97;1.20;;;23.90;74.70;;;;;;4381691;28;658297;-67
2023/09/20 13:32:42;;;;;;;3.25;1.40;;;24.50;71.20;;;;;;4408624;28;657821;-66
2023/09/20 13:35:30;;;;;;;6.80;1.23;;;24.50;71.60;;;;;;4410526;28;658676;-67
2023/09/20 13:38:18;;;;;;;2.15;1.23;;;24.50;71.00;;;;;;4381026;28;657199;-66
2023/09/20 13:41:05;;;;;;;3.53;1.10;;;24.30;72.40;;;;;;4416495;28;657542;-67
2023/09/20 13:43:54;;;;;;;3.72;1.00;;;24.50;69.20;;;;;;4409298;28;657998;-66
2023/09/20 13:46:42;;;;;;;2.22;1.13;;;24.70;68.70;;;;;;4410462;28;657635;-66
2023/09/20 13:49:30;;;;;;;1.20;1.00;;;24.70;72.80;;;;;;4391920;28;658686;-66
2023/09/20 13:52:18;;;;;;;3.38;1.08;;;24.20;74.50;;;;;;4398182;28;657740;-66
2023/09/20 13:55:06;;;;;;;1.70;1.20;;;24.00;67.60;;;;;;4414642;28;658731;-66
2023/09/20 13:57:53;;;;;;;1.98;1.02;;;24.30;65.30;;;;;;4398463;28;658308;-66
2023/09/20 14:00:42;;;;;;;2.65;1.08;;;24.60;72.80;;;;;;4412850;28;659346;-66
2023/09/20 14:03:29;;;;;;;1.85;0.90;;;24.50;66.20;;;;;;4388726;28;658962;-66
2023/09/20 14:06:17;;;;;;;2.35;1.02;;;24.60;66.40;;;;;;4413738;28;657257;-66
2023/09/20 14:09:05;;;;;;;2.17;1.10;;;24.70;65.70;;;;;;4384901;28;658882;-66
2023/09/20 14:11:52;;;;;;;2.83;1.20;;;24.70;70.00;;;;;;4405064;28;657108;-66
2023/09/20 14:14:39;;;;;;;1.58;1.02;;;25.20;64.40;;;;;;4385553;28;657851;-66
2023/09/20 14:17:30;;;;;;;3.58;0.95;;;25.90;67.60;;;;;;4413105;28;657945;-66
2023/09/20 14:20:21;;;;;;;2.28;1.00;;;26.10;64.00;;;;;;4392701;28;657779;-66
2023/09/20 14:23:08;;;;;;;2.70;0.77;;;26.30;60.00;;;;;;4393084;28;658493;-66
2023/09/20 14:25:56;;;;;;;2.65;1.10;;;26.50;60.00;;;;;;4411254;28;658396;-66
2023/09/20 14:28:43;;;;;;;6.57;1.17;;;26.80;63.60;;;;;;4379558;28;657529;-66
2023/09/20 14:31:30;;;;;;;2.45;1.10;;;26.20;59.30;;;;;;4408320;28;659050;-66
2023/09/20 14:34:21;;;;;;;3.47;1.10;;;26.60;59.50;;;;;;4392765;28;658311;-66
2023/09/20 14:37:08;;;;;;;2.22;1.15;;;28.70;56.40;;;;;;4386265;28;657439;-66
2023/09/20 14:39:56;;;;;;;2.58;0.90;;;29.50;50.40;;;;;;4406866;28;658400;-66
2023/09/20 14:42:44;;;;;;;5.38;0.88;;;31.40;47.30;;;;;;4386316;28;657456;-66
2023/09/20 14:45:31;;;;;;;3.05;1.33;;;32.90;43.90;;;;;;4419088;28;658103;-66
2023/09/20 14:48:18;;;;;;;2.67;1.10;;;32.60;42.20;;;;;;4388706;28;657724;-66
2023/09/20 14:51:08;;;;;;;4.68;0.90;;;33.30;40.90;;;;;;4409388;28;658593;-66
2023/09/20 14:53:58;;;;;;;2.15;1.13;;;34.00;41.10;;;;;;4382332;28;658507;-66
2023/09/20 14:56:45;;;;;;;2.95;0.80;;;35.90;37.10;;;;;;4383077;28;658148;-66